sensor_id;sensor_type;location;lat;lon;timestamp;pressure;altitude;pressure_sealevel;temperature;humidity
31771;BME280;18343;50.152;8.182;2023-05-07T00:02:09;97432.63;;;16.32;100.00
31771;BME280;18343;50.152;8.182;2023-05-07T00:04:55;97439.56;;;16.28;99.88
31771;BME280;18343;50.152;8.182;2023-05-07T00:07:40;97437.78;;;16.21;99.95
31771;BME280;18343;50.152;8.182;2023-05-07T00:10:26;97432.56;;;16.20;100.00
31771;BME280;18343;50.152;8.182;2023-05-07T00:13:10;97440.09;;;16.18;100.00
31771;BME280;18343;50.152;8.182;2023-05-07T00:15:55;97439.72;;;16.14;100.00
31771;BME280;18343;50.152;8.182;2023-05-07T00:18:43;97434.06;;;16.16;100.00
31771;BME280;18343;50.152;8.182;2023-05-07T00:21:29;97431.84;;;16.13;100.00
31771;BME280;18343;50.152;8.182;2023-05-07T00:24:13;97435.38;;;16.13;100.00
31771;BME280;18343;50.152;8.182;2023-05-07T00:26:58;97432.06;;;16.11;100.00
31771;BME280;18343;50.152;8.182;2023-05-07T00:29:43;97433.13;;;16.10;100.00
31771;BME280;18343;50.152;8.182;2023-05-07T00:32:27;97434.19;;;16.09;100.00
31771;BME280;18343;50.152;8.182;2023-05-07T00:35:12;97432.75;;;16.07;100.00
31771;BME280;18343;50.152;8.182;2023-05-07T00:37:58;97427.16;;;16.02;100.00
31771;BME280;18343;50.152;8.182;2023-05-07T00:40:46;97425.13;;;15.97;100.00
31771;BME280;18343;50.152;8.182;2023-05-07T00:43:30;97422.94;;;15.87;100.00
31771;BME280;18343;50.152;8.182;2023-05-07T00:46:15;97424.00;;;15.86;100.00
31771;BME280;18343;50.152;8.182;2023-05-07T00:49:00;97421.28;;;15.86;100.00
31771;BME280;18343;50.152;8.182;2023-05-07T00:51:45;97418.56;;;15.86;100.00
31771;BME280;18343;50.152;8.182;2023-05-07T00:54:32;97425.09;;;15.85;100.00
31771;BME280;18343;50.152;8.182;2023-05-07T00:57:19;97425.97;;;15.79;100.00
31771;BME280;18343;50.152;8.182;2023-05-07T01:00:06;97422.88;;;15.76;100.00
31771;BME280;18343;50.152;8.182;2023-05-07T01:02:51;97425.81;;;15.74;100.00
31771;BME280;18343;50.152;8.182;2023-05-07T01:05:36;97425.22;;;15.72;100.00
31771;BME280;18343;50.152;8.182;2023-05-07T01:08:22;97425.28;;;15.66;100.00
31771;BME280;18343;50.152;8.182;2023-05-07T01:11:09;97428.66;;;15.61;100.00
31771;BME280;18343;50.152;8.182;2023-05-07T01:13:54;97430.81;;;15.59;100.00
31771;BME280;18343;50.152;8.182;2023-05-07T01:16:39;97431.03;;;15.57;100.00
31771;BME280;18343;50.152;8.182;2023-05-07T01:19:24;97439.38;;;15.56;100.00
31771;BME280;18343;50.152;8.182;2023-05-07T01:22:10;97426.00;;;15.54;100.00
31771;BME280;18343;50.152;8.182;2023-05-07T01:24:56;97429.56;;;15.55;100.00
31771;BME280;18343;50.152;8.182;2023-05-07T01:27:41;97426.44;;;15.58;100.00
31771;BME280;18343;50.152;8.182;2023-05-07T01:30:26;97420.41;;;15.56;100.00
31771;BME280;18343;50.152;8.182;2023-05-07T01:33:14;97424.56;;;15.59;100.00
31771;BME280;18343;50.152;8.182;2023-05-07T01:36:00;97414.53;;;15.59;100.00
31771;BME280;18343;50.152;8.182;2023-05-07T01:38:46;97416.78;;;15.62;100.00
31771;BME280;18343;50.152;8.182;2023-05-07T01:41:32;97407.59;;;15.63;100.00
31771;BME280;18343;50.152;8.182;2023-05-07T01:44:18;97401.13;;;15.64;100.00
31771;BME280;18343;50.152;8.182;2023-05-07T01:47:03;97395.09;;;15.62;100.00
31771;BME280;18343;50.152;8.182;2023-05-07T01:49:48;97401.34;;;15.63;100.00
31771;BME280;18343;50.152;8.182;2023-05-07T01:52:34;97395.78;;;15.57;100.00
31771;BME280;18343;50.152;8.182;2023-05-07T01:55:20;97400.47;;;15.44;100.00
31771;BME280;18343;50.152;8.182;2023-05-07T01:58:06;97404.38;;;15.30;100.00
31771;BME280;18343;50.152;8.182;2023-05-07T02:00:51;97412.13;;;15.26;100.00
31771;BME280;18343;50.152;8.182;2023-05-07T02:03:35;97407.31;;;15.28;100.00
31771;BME280;18343;50.152;8.182;2023-05-07T02:06:20;97402.84;;;15.34;100.00
31771;BME280;18343;50.152;8.182;2023-05-07T02:09:05;97404.91;;;15.38;100.00
31771;BME280;18343;50.152;8.182;2023-05-07T02:11:49;97404.47;;;15.41;100.00
31771;BME280;18343;50.152;8.182;2023-05-07T02:14:35;97408.59;;;15.44;100.00
31771;BME280;18343;50.152;8.182;2023-05-07T02:17:20;97409.44;;;15.44;100.00
31771;BME280;18343;50.152;8.182;2023-05-07T02:20:07;97410.03;;;15.46;100.00
31771;BME280;18343;50.152;8.182;2023-05-07T02:22:52;97407.09;;;15.48;100.00
31771;BME280;18343;50.152;8.182;2023-05-07T02:25:37;97407.09;;;15.48;100.00
31771;BME280;18343;50.152;8.182;2023-05-07T02:28:21;97406.66;;;15.51;100.00
31771;BME280;18343;50.152;8.182;2023-05-07T02:31:07;97409.75;;;15.54;100.00
31771;BME280;18343;50.152;8.182;2023-05-07T02:33:52;97412.47;;;15.54;100.00
31771;BME280;18343;50.152;8.182;2023-05-07T02:36:37;97412.06;;;15.57;100.00
31771;BME280;18343;50.152;8.182;2023-05-07T02:39:22;97407.47;;;15.58;100.00
31771;BME280;18343;50.152;8.182;2023-05-07T02:42:06;97411.81;;;15.59;100.00
31771;BME280;18343;50.152;8.182;2023-05-07T02:44:51;97410.75;;;15.60;100.00
31771;BME280;18343;50.152;8.182;2023-05-07T02:47:37;97409.91;;;15.60;100.00
31771;BME280;18343;50.152;8.182;2023-05-07T02:50:22;97409.34;;;15.57;100.00
31771;BME280;18343;50.152;8.182;2023-05-07T02:53:06;97401.22;;;15.57;100.00
31771;BME280;18343;50.152;8.182;2023-05-07T02:55:51;97397.88;;;15.55;100.00
31771;BME280;18343;50.152;8.182;2023-05-07T02:58:36;97404.56;;;15.53;100.00
31771;BME280;18343;50.152;8.182;2023-05-07T03:01:21;97400.03;;;15.47;100.00
31771;BME280;18343;50.152;8.182;2023-05-07T03:04:07;97409.72;;;15.36;100.00
31771;BME280;18343;50.152;8.182;2023-05-07T03:06:51;97405.56;;;15.34;100.00
31771;BME280;18343;50.152;8.182;2023-05-07T03:09:36;97402.28;;;15.32;100.00
31771;BME280;18343;50.152;8.182;2023-05-07T03:12:21;97397.09;;;15.30;100.00
31771;BME280;18343;50.152;8.182;2023-05-07T03:15:08;97399.78;;;15.30;100.00
31771;BME280;18343;50.152;8.182;2023-05-07T03:17:53;97400.63;;;15.31;100.00
31771;BME280;18343;50.152;8.182;2023-05-07T03:20:39;97386.59;;;15.34;100.00
31771;BME280;18343;50.152;8.182;2023-05-07T03:23:24;97384.72;;;15.34;100.00
31771;BME280;18343;50.152;8.182;2023-05-07T03:26:08;97379.06;;;15.36;100.00
31771;BME280;18343;50.152;8.182;2023-05-07T03:28:53;97384.28;;;15.37;100.00
31771;BME280;18343;50.152;8.182;2023-05-07T03:31:37;97378.84;;;15.37;100.00
31771;BME280;18343;50.152;8.182;2023-05-07T03:34:22;97383.88;;;15.34;100.00
31771;BME280;18343;50.152;8.182;2023-05-07T03:37:09;97375.84;;;15.27;100.00
31771;BME280;18343;50.152;8.182;2023-05-07T03:39:54;97371.94;;;15.23;100.00
31771;BME280;18343;50.152;8.182;2023-05-07T03:42:39;97371.94;;;15.23;100.00
31771;BME280;18343;50.152;8.182;2023-05-07T03:45:23;97371.50;;;15.26;100.00
31771;BME280;18343;50.152;8.182;2023-05-07T03:48:08;97373.81;;;15.22;100.00
31771;BME280;18343;50.152;8.182;2023-05-07T03:50:53;97379.06;;;15.17;100.00
31771;BME280;18343;50.152;8.182;2023-05-07T03:53:39;97373.03;;;15.15;100.00
31771;BME280;18343;50.152;8.182;2023-05-07T03:56:24;97381.56;;;15.19;100.00
31771;BME280;18343;50.152;8.182;2023-05-07T03:59:09;97384.03;;;15.20;100.00
31771;BME280;18343;50.152;8.182;2023-05-07T04:01:53;97379.44;;;15.21;100.00
31771;BME280;18343;50.152;8.182;2023-05-07T04:04:38;97388.41;;;15.21;100.00
31771;BME280;18343;50.152;8.182;2023-05-07T04:07:23;97394.66;;;15.22;100.00
31771;BME280;18343;50.152;8.182;2023-05-07T04:10:09;97404.06;;;15.19;100.00
31771;BME280;18343;50.152;8.182;2023-05-07T04:12:54;97406.97;;;15.18;100.00
31771;BME280;18343;50.152;8.182;2023-05-07T04:15:39;97405.31;;;15.17;100.00
31771;BME280;18343;50.152;8.182;2023-05-07T04:18:24;97412.19;;;15.19;100.00
31771;BME280;18343;50.152;8.182;2023-05-07T04:21:14;97418.66;;;15.18;100.00
31771;BME280;18343;50.152;8.182;2023-05-07T04:23:59;97418.03;;;15.16;100.00
31771;BME280;18343;50.152;8.182;2023-05-07T04:26:45;97420.13;;;15.14;100.00
31771;BME280;18343;50.152;8.182;2023-05-07T04:29:29;97427.44;;;15.14;100.00
31771;BME280;18343;50.152;8.182;2023-05-07T04:32:14;97425.56;;;15.14;100.00
31771;BME280;18343;50.152;8.182;2023-05-07T04:34:59;97422.84;;;15.14;100.00
31771;BME280;18343;50.152;8.182;2023-05-07T04:37:43;97418.69;;;15.12;100.00
31771;BME280;18343;50.152;8.182;2023-05-07T04:40:28;97418.31;;;15.08;100.00
31771;BME280;18343;50.152;8.182;2023-05-07T04:43:14;97420.81;;;15.10;100.00
31771;BME280;18343;50.152;8.182;2023-05-07T04:45:58;97423.72;;;15.08;100.00
31771;BME280;18343;50.152;8.182;2023-05-07T04:48:42;97424.56;;;15.09;100.00
31771;BME280;18343;50.152;8.182;2023-05-07T04:51:27;97423.50;;;15.10;100.00
31771;BME280;18343;50.152;8.182;2023-05-07T04:54:13;97424.94;;;15.12;100.00
31771;BME280;18343;50.152;8.182;2023-05-07T04:56:58;97425.94;;;15.18;100.00
31771;BME280;18343;50.152;8.182;2023-05-07T04:59:44;97420.69;;;15.23;100.00
31771;BME280;18343;50.152;8.182;2023-05-07T05:02:29;97421.31;;;15.25;100.00
31771;BME280;18343;50.152;8.182;2023-05-07T05:05:13;97431.31;;;15.24;100.00
31771;BME280;18343;50.152;8.182;2023-05-07T05:07:58;97431.09;;;15.26;100.00
31771;BME280;18343;50.152;8.182;2023-05-07T05:10:43;97432.13;;;15.25;100.00
31771;BME280;18343;50.152;8.182;2023-05-07T05:13:28;97436.28;;;15.28;100.00
31771;BME280;18343;50.152;8.182;2023-05-07T05:16:17;97431.09;;;15.26;100.00
31771;BME280;18343;50.152;8.182;2023-05-07T05:19:02;97441.94;;;15.26;100.00
31771;BME280;18343;50.152;8.182;2023-05-07T05:21:46;97438.31;;;15.32;100.00
31771;BME280;18343;50.152;8.182;2023-05-07T05:24:31;97442.66;;;15.33;100.00
31771;BME280;18343;50.152;8.182;2023-05-07T05:27:16;97438.09;;;15.34;100.00
31771;BME280;18343;50.152;8.182;2023-05-07T05:30:02;97440.22;;;15.32;100.00
31771;BME280;18343;50.152;8.182;2023-05-07T05:32:48;97439.13;;;15.33;100.00
31771;BME280;18343;50.152;8.182;2023-05-07T05:35:33;97439.31;;;15.38;100.00
31771;BME280;18343;50.152;8.182;2023-05-07T05:38:17;97441.78;;;15.39;100.00
31771;BME280;18343;50.152;8.182;2023-05-07T05:41:02;97445.72;;;15.43;100.00
31771;BME280;18343;50.152;8.182;2023-05-07T05:43:47;97447.97;;;15.46;100.00
31771;BME280;18343;50.152;8.182;2023-05-07T05:46:32;97448.75;;;15.53;100.00
31771;BME280;18343;50.152;8.182;2023-05-07T05:49:18;97441.16;;;15.62;100.00
31771;BME280;18343;50.152;8.182;2023-05-07T05:52:03;97452.78;;;15.69;100.00
31771;BME280;18343;50.152;8.182;2023-05-07T05:54:47;97445.63;;;15.75;100.00
31771;BME280;18343;50.152;8.182;2023-05-07T05:57:32;97449.63;;;15.72;100.00
31771;BME280;18343;50.152;8.182;2023-05-07T06:00:17;97448.56;;;15.73;100.00
31771;BME280;18343;50.152;8.182;2023-05-07T06:03:02;97453.31;;;15.78;100.00
31771;BME280;18343;50.152;8.182;2023-05-07T06:05:48;97451.59;;;15.83;100.00
31771;BME280;18343;50.152;8.182;2023-05-07T06:08:32;97449.16;;;15.94;100.00
31771;BME280;18343;50.152;8.182;2023-05-07T06:11:17;97447.00;;;16.02;100.00
31771;BME280;18343;50.152;8.182;2023-05-07T06:14:01;97449.31;;;16.17;100.00
31771;BME280;18343;50.152;8.182;2023-05-07T06:16:46;97444.91;;;16.34;100.00
31771;BME280;18343;50.152;8.182;2023-05-07T06:19:31;97446.31;;;16.55;100.00
31771;BME280;18343;50.152;8.182;2023-05-07T06:22:17;97439.78;;;16.74;100.00
31771;BME280;18343;50.152;8.182;2023-05-07T06:25:02;97441.63;;;16.92;100.00
31771;BME280;18343;50.152;8.182;2023-05-07T06:27:47;97440.66;;;16.98;100.00
31771;BME280;18343;50.152;8.182;2023-05-07T06:30:31;97439.97;;;17.03;100.00
31771;BME280;18343;50.152;8.182;2023-05-07T06:33:16;97442.59;;;17.09;100.00
31771;BME280;18343;50.152;8.182;2023-05-07T06:36:01;97450.03;;;17.25;100.00
31771;BME280;18343;50.152;8.182;2023-05-07T06:38:46;97444.97;;;17.41;100.00
31771;BME280;18343;50.152;8.182;2023-05-07T06:41:31;97448.03;;;17.56;100.00
31771;BME280;18343;50.152;8.182;2023-05-07T06:44:16;97447.25;;;17.67;100.00
31771;BME280;18343;50.152;8.182;2023-05-07T06:47:00;97448.16;;;17.84;100.00
31771;BME280;18343;50.152;8.182;2023-05-07T06:49:45;97444.50;;;18.02;100.00
31771;BME280;18343;50.152;8.182;2023-05-07T06:52:30;97445.50;;;18.13;100.00
31771;BME280;18343;50.152;8.182;2023-05-07T06:55:16;97448.47;;;18.23;100.00
31771;BME280;18343;50.152;8.182;2023-05-07T06:58:01;97454.00;;;18.28;100.00
31771;BME280;18343;50.152;8.182;2023-05-07T07:00:45;97456.91;;;18.38;100.00
31771;BME280;18343;50.152;8.182;2023-05-07T07:03:30;97466.50;;;18.41;100.00
31771;BME280;18343;50.152;8.182;2023-05-07T07:06:15;97459.50;;;18.45;100.00
31771;BME280;18343;50.152;8.182;2023-05-07T07:09:00;97447.31;;;18.47;100.00
31771;BME280;18343;50.152;8.182;2023-05-07T07:11:47;97458.31;;;18.52;100.00
31771;BME280;18343;50.152;8.182;2023-05-07T07:14:32;97459.47;;;18.56;100.00
31771;BME280;18343;50.152;8.182;2023-05-07T07:17:16;97460.91;;;18.59;100.00
31771;BME280;18343;50.152;8.182;2023-05-07T07:20:01;97456.03;;;18.61;100.00
31771;BME280;18343;50.152;8.182;2023-05-07T07:22:46;97461.59;;;18.66;100.00
31771;BME280;18343;50.152;8.182;2023-05-07T07:25:30;97458.72;;;18.73;100.00
31771;BME280;18343;50.152;8.182;2023-05-07T07:28:21;97464.84;;;18.80;100.00
31771;BME280;18343;50.152;8.182;2023-05-07T07:31:06;97464.13;;;18.84;100.00
31771;BME280;18343;50.152;8.182;2023-05-07T07:33:50;97456.53;;;18.86;100.00
31771;BME280;18343;50.152;8.182;2023-05-07T07:36:35;97448.19;;;18.93;100.00
31771;BME280;18343;50.152;8.182;2023-05-07T07:39:20;97454.78;;;18.97;100.00
31771;BME280;18343;50.152;8.182;2023-05-07T07:42:04;97448.63;;;19.02;100.00
31771;BME280;18343;50.152;8.182;2023-05-07T07:44:51;97456.44;;;18.98;100.00
31771;BME280;18343;50.152;8.182;2023-05-07T07:47:35;97465.22;;;19.00;100.00
31771;BME280;18343;50.152;8.182;2023-05-07T07:50:20;97469.00;;;18.99;100.00
31771;BME280;18343;50.152;8.182;2023-05-07T07:53:05;97460.59;;;19.01;100.00
31771;BME280;18343;50.152;8.182;2023-05-07T07:55:50;97461.03;;;19.09;100.00
31771;BME280;18343;50.152;8.182;2023-05-07T07:58:35;97460.28;;;19.14;100.00
31771;BME280;18343;50.152;8.182;2023-05-07T08:01:20;97467.06;;;19.11;100.00
31771;BME280;18343;50.152;8.182;2023-05-07T08:04:05;97471.00;;;19.04;100.00
31771;BME280;18343;50.152;8.182;2023-05-07T08:06:50;97470.75;;;19.05;100.00
31771;BME280;18343;50.152;8.182;2023-05-07T08:09:35;97481.75;;;19.10;100.00
31771;BME280;18343;50.152;8.182;2023-05-07T08:12:19;97472.91;;;19.20;100.00
31771;BME280;18343;50.152;8.182;2023-05-07T08:15:08;97478.22;;;19.26;100.00
31771;BME280;18343;50.152;8.182;2023-05-07T08:17:55;97480.78;;;19.33;100.00
31771;BME280;18343;50.152;8.182;2023-05-07T08:20:39;97477.66;;;19.41;99.33
31771;BME280;18343;50.152;8.182;2023-05-07T08:23:24;97480.69;;;19.45;99.11
31771;BME280;18343;50.152;8.182;2023-05-07T08:26:08;97483.63;;;19.55;99.26
31771;BME280;18343;50.152;8.182;2023-05-07T08:28:53;97478.00;;;19.62;98.12
31771;BME280;18343;50.152;8.182;2023-05-07T08:31:38;97482.13;;;19.64;97.38
31771;BME280;18343;50.152;8.182;2023-05-07T08:34:25;97482.38;;;19.63;96.12
31771;BME280;18343;50.152;8.182;2023-05-07T08:37:10;97478.31;;;19.65;96.63
31771;BME280;18343;50.152;8.182;2023-05-07T08:39:55;97477.56;;;19.70;96.46
31771;BME280;18343;50.152;8.182;2023-05-07T08:42:40;97477.47;;;19.81;97.23
31771;BME280;18343;50.152;8.182;2023-05-07T08:45:26;97482.50;;;19.89;96.10
31771;BME280;18343;50.152;8.182;2023-05-07T08:48:16;97483.16;;;19.97;95.78
31771;BME280;18343;50.152;8.182;2023-05-07T08:51:03;97481.72;;;20.11;94.88
31771;BME280;18343;50.152;8.182;2023-05-07T08:53:49;97471.94;;;20.15;93.82
31771;BME280;18343;50.152;8.182;2023-05-07T08:56:34;97472.63;;;20.27;94.07
31771;BME280;18343;50.152;8.182;2023-05-07T08:59:22;97478.84;;;20.39;93.14
31771;BME280;18343;50.152;8.182;2023-05-07T09:02:08;97477.88;;;20.50;93.61
31771;BME280;18343;50.152;8.182;2023-05-07T09:05:00;97488.91;;;20.60;91.22
31771;BME280;18343;50.152;8.182;2023-05-07T09:07:46;97475.81;;;20.63;90.06
31771;BME280;18343;50.152;8.182;2023-05-07T09:10:33;97483.44;;;20.60;90.29
31771;BME280;18343;50.152;8.182;2023-05-07T09:13:18;97481.88;;;20.65;89.59
31771;BME280;18343;50.152;8.182;2023-05-07T09:16:13;97472.97;;;20.74;90.15
31771;BME280;18343;50.152;8.182;2023-05-07T09:18:59;97468.06;;;20.76;88.22
31771;BME280;18343;50.152;8.182;2023-05-07T09:21:44;97469.47;;;20.79;87.66
31771;BME280;18343;50.152;8.182;2023-05-07T09:24:30;97471.91;;;20.80;86.76
31771;BME280;18343;50.152;8.182;2023-05-07T09:27:16;97473.44;;;20.93;87.55
31771;BME280;18343;50.152;8.182;2023-05-07T09:30:04;97465.97;;;21.15;88.02
31771;BME280;18343;50.152;8.182;2023-05-07T09:32:48;97471.91;;;21.29;85.78
31771;BME280;18343;50.152;8.182;2023-05-07T09:35:33;97473.63;;;21.40;84.52
31771;BME280;18343;50.152;8.182;2023-05-07T09:38:19;97472.09;;;21.54;84.89
31771;BME280;18343;50.152;8.182;2023-05-07T09:41:09;97466.47;;;21.71;85.76
31771;BME280;18343;50.152;8.182;2023-05-07T09:43:55;97477.53;;;21.86;83.14
